• Join FlightAware (Why Join?)
  • Login
  • US Flag 
02:49PM EDT


 

Airport Tracker/Info


-or-


 

Live Flight TrackerFlight Track Log ✈ UAL4202 ✈ 16-Apr-2013 ✈ KSTL - KEWR

Flight Track Log - Related Links

Times and Time Zones

All times are in EDT time to prevent confusion due to time zone crossing. See the UAL4202 flight status page for this flight to view local times or setup timezone preferences in your user account.

Time Position Orientation Groundspeed Altitude Reporting Facility
EDT Latitude Longitude Course Direction KTS MPH feet Rate Location/Type
08:40PM 38.7761 -90.3850 319° Northwest 169 194 2,600  Level FAA TRACON SMA TRACON (SMA)
08:40PM 38.7908 -90.3939 335° Northwest 182 209 3,100 1,800 Climbing FAA TRACON SMA TRACON (SMA)
08:41PM 38.8072 -90.4017 340° North 200 230 3,800 1,920 Climbing FAA TRACON SMA TRACON (SMA)
08:41PM 38.8306 -90.3967 North 228 262 4,400 1,920 Climbing FAA TRACON SMA TRACON (SMA)
08:41PM 38.8492 -90.3847 27° Northeast 240 276 5,100 2,100 Climbing FAA TRACON SMA TRACON (SMA)
08:42PM 38.8683 -90.3714 28° Northeast 251 289 5,800 1,800 Climbing FAA TRACON SMA TRACON (SMA)
08:42PM 38.8883 -90.3578 28° Northeast 260 299 6,300 1,560 Climbing FAA TRACON SMA TRACON (SMA)
08:43PM 38.9256 -90.3106 45° Northeast 300 345 7,400 1,860 Climbing FAA TRACON SMA TRACON (SMA)
08:43PM 38.9253 -90.2781 91° East 301 346 8,200 2,700 Climbing FAA TRACON SMA TRACON (SMA)
08:43PM 38.9219 -90.2386 96° East 291 335 9,200 2,520 Climbing FAA TRACON SMA TRACON (SMA)
08:44PM 38.9169 -90.2069 101° East 295 339 9,900 1,920 Climbing FAA TRACON SMA TRACON (SMA)
08:44PM 38.9106 -90.1753 105° East 295 339 10,500 2,100 Climbing FAA TRACON SMA TRACON (SMA)
08:44PM 38.9031 -90.1347 103° East 303 349 11,300 2,100 Climbing FAA TRACON SMA TRACON (SMA)
08:45PM 38.8969 -90.1017 103° East 309 356 11,900 1,800 Climbing FAA TRACON SMA TRACON (SMA)
08:45PM 38.8908 -90.0686 103° East 311 358 12,500 1,920 Climbing FAA TRACON SMA TRACON (SMA)
08:45PM 38.8847 -90.0258 100° East 316 364 13,200 2,100 Climbing FAA TRACON SMA TRACON (SMA)
08:46PM 38.8864 -89.9903 87° East 323 372 13,900 1,980 Climbing FAA TRACON SMA TRACON (SMA)
08:46PM 38.8944 -89.9561 73° East 327 376 14,500 1,800 Climbing FAA TRACON SMA TRACON (SMA)
08:46PM 38.9086 -89.9153 66° East 328 377 15,100 1,260 Climbing FAA TRACON SMA TRACON (SMA)
08:47PM 38.9094 -89.8781 88° East 339 390 15,400 720 Climbing FAA TRACON SMA TRACON (SMA)
08:47PM 38.8989 -89.8419 111° Southeast 350 403 15,600 600 Climbing FAA TRACON SMA TRACON (SMA)
08:47PM 38.8844 -89.7958 112° Southeast 361 415 15,800 540 Climbing FAA TRACON SMA TRACON (SMA)
08:48PM 38.8706 -89.7575 115° Southeast 375 432 16,000 1,020 Climbing FAA TRACON SMA TRACON (SMA)
08:48PM 38.8583 -89.7181 112° Southeast 386 444 16,500 1,620 Climbing FAA TRACON SMA TRACON (SMA)
08:48PM 38.8467 -89.6678 107° East 389 448 17,200 1,620 Climbing FAA TRACON SMA TRACON (SMA)
08:49PM 38.8450 -89.6256 93° East 389 448 17,700 1,800 Climbing FAA TRACON SMA TRACON (SMA)
08:49PM 38.8436 -89.5833 92° East 384 442 18,300 1,620 Climbing FAA TRACON SMA TRACON (SMA)
08:49PM 38.8464 -89.5306 86° East 387 445 18,700 1,140 Climbing FAA TRACON SMA TRACON (SMA)
08:50PM 38.8500 -89.4872 84° East 394 453 19,100 1,020 Climbing FAA TRACON SMA TRACON (SMA)
08:50PM 38.8531 -89.4436 85° East 399 459 19,400 1,020 Climbing FAA TRACON SMA TRACON (SMA)
08:50PM 38.8575 -89.3878 84° East 408 470 19,800 1,020 Climbing FAA TRACON SMA TRACON (SMA)
08:51PM 38.8606 -89.3425 85° East 413 475 20,100 1,020 Climbing FAA TRACON SMA TRACON (SMA)
08:51PM 38.8631 -89.2969 86° East 417 480 20,500 1,320 Climbing FAA TRACON SMA TRACON (SMA)
08:51PM 38.8669 -89.2392 85° East 424 488 21,000 1,260 Climbing FAA TRACON SMA TRACON (SMA)
08:52PM 38.8708 -89.1925 84° East 425 489 21,400 1,200 Climbing FAA TRACON SMA TRACON (SMA)
08:52PM 38.8744 -89.1458 84° East 427 491 21,800 1,320 Climbing FAA TRACON SMA TRACON (SMA)
08:52PM 38.8794 -89.0875 84° East 428 493 22,300 1,020 Climbing FAA TRACON SMA TRACON (SMA)
08:53PM 38.8808 -89.0764 81° East 427 491 22,500 1,260 Climbing FAA TRACON SMA TRACON (SMA)
08:53PM 38.8858 -89.0258 83° East 431 496 23,400 1,320 Climbing Kansas City Center
08:54PM 38.8950 -88.8786 85° East 427 491 24,600 1,200 Climbing Kansas City Center
08:55PM 38.9031 -88.7250 86° East 428 493 25,900 1,200 Climbing Kansas City Center
08:56PM 38.9167 -88.5661 84° East 438 504 27,100 1,200 Climbing Kansas City Center
08:57PM 38.9394 -88.4153 79° East 431 496 28,500 1,500 Climbing Kansas City Center
08:58PM 38.9706 -88.3025 70° East 427 491 29,600 1,320 Climbing Indianapolis Center
08:59PM 39.0094 -88.1600 71° East 423 487 30,700 1,080 Climbing Indianapolis Center
09:00PM 39.0594 -88.0183 66° East 433 498 31,800 1,080 Climbing Indianapolis Center
09:01PM 39.1286 -87.8908 55° Northeast 438 504 32,900 1,140 Climbing Indianapolis Center
09:02PM 39.1772 -87.7447 67° East 441 507 34,200 1,020 Climbing Indianapolis Center
09:03PM 39.2239 -87.5978 68° East 441 507 35,000 360 Climbing Indianapolis Center
09:04PM 39.2733 -87.4461 67° East 454 522 35,000  Level Indianapolis Center
09:05PM 39.3239 -87.2833 68° East 479 551 35,000  Level Indianapolis Center
09:06PM 39.3769 -87.1175 67° East 493 567 35,000  Level Indianapolis Center
09:07PM 39.4281 -86.9522 68° East 494 568 35,000  Level Indianapolis Center
09:08PM 39.4803 -86.7853 68° East 496 571 35,000  Level Indianapolis Center
09:09PM 39.5311 -86.6192 68° East 493 567 35,000  Level Indianapolis Center
09:10PM 39.5822 -86.4528 68° East 493 567 35,000  Level Indianapolis Center
09:11PM 39.6328 -86.2856 69° East 495 570 35,000  Level Indianapolis Center
09:12PM 39.6839 -86.1186 68° East 494 568 35,000  Level Indianapolis Center
09:13PM 39.7347 -85.9508 68° East 496 571 35,000  Level Indianapolis Center
09:14PM 39.7850 -85.7786 69° East 497 572 35,000  Level Indianapolis Center
09:15PM 39.8364 -85.6078 69° East 501 577 35,000  Level Indianapolis Center
09:16PM 39.8872 -85.4367 69° East 503 579 35,000  Level Indianapolis Center
09:17PM 39.9375 -85.2658 69° East 502 578 35,000  Level Indianapolis Center
09:18PM 39.9883 -85.0944 69° East 502 578 35,000  Level Indianapolis Center
09:19PM 40.0383 -84.9217 69° East 503 579 35,000  Level Indianapolis Center
09:20PM 40.0875 -84.7500 69° East 500 575 35,000  Level Indianapolis Center
09:21PM 40.1364 -84.5794 69° East 497 572 35,000  Level Indianapolis Center
09:22PM 40.1858 -84.4094 69° East 496 571 35,000  Level Indianapolis Center
09:23PM 40.2328 -84.2403 70° East 488 562 35,000  Level Indianapolis Center
09:24PM 40.2800 -84.0722 70° East 486 559 35,000  Level Indianapolis Center
09:25PM 40.3475 -83.9153 61° Northeast 487 560 35,000  Level Indianapolis Center
09:26PM 40.4189 -83.7592 59° Northeast 492 566 35,000  Level Indianapolis Center
09:27PM 40.4914 -83.5997 59° Northeast 498 573 35,000  Level Indianapolis Center
09:28PM 40.5633 -83.4419 59° Northeast 497 572 35,000  Level Indianapolis Center
09:29PM 40.6344 -83.2850 59° Northeast 495 570 35,000  Level Indianapolis Center
09:30PM 40.7167 -83.1031 59° Northeast 497 572 35,000  Level Indianapolis Center
09:31PM 40.7864 -82.9447 60° Northeast 497 572 35,000  Level Indianapolis Center
09:32PM 40.8572 -82.7856 59° Northeast 499 574 35,000  Level Indianapolis Center
09:33PM 40.9272 -82.6286 59° Northeast 493 567 35,000  Level Indianapolis Center
09:34PM 40.9972 -82.4708 60° Northeast 493 567 35,000  Level Indianapolis Center
09:35PM 41.0667 -82.3114 60° Northeast 495 570 35,000  Level Indianapolis Center
09:36PM 41.1364 -82.1533 60° Northeast 493 567 35,000  Level Indianapolis Center
09:37PM 41.2053 -81.9925 60° Northeast 496 571 35,000  Level Indianapolis Center
09:38PM 41.2744 -81.8319 60° Northeast 495 570 35,000  Level Indianapolis Center
09:40PM 41.3294 -81.6561 67° East 489 563 35,000  Level Cleveland Center
09:41PM 41.3561 -81.4767 79° East 489 563 35,000  Level Cleveland Center
09:42PM 41.3825 -81.2750 80° East 494 568 35,000  Level Cleveland Center
09:43PM 41.4086 -81.0925 79° East 494 568 35,000  Level Cleveland Center
09:44PM 41.4342 -80.9100 79° East 500 575 35,000  Level Cleveland Center
09:45PM 41.4597 -80.7244 80° East 506 582 35,000  Level Cleveland Center
09:46PM 41.4825 -80.5636 79° East 501 577 35,000  Level Cleveland Center
09:47PM 41.5053 -80.3808 80° East 501 577 35,000  Level Cleveland Center
09:48PM 41.5319 -80.1947 79° East 506 582 35,000  Level Cleveland Center
09:49PM 41.5583 -79.9947 80° East 501 577 35,000 -120 Level Cleveland Center
09:50PM 41.5761 -79.8475 81° East 501 577 34,800 -960 Descending Cleveland Center
09:51PM 41.6039 -79.6361 80° East 496 571 33,100 -900 Descending Cleveland Center
09:52PM 41.6253 -79.4608 81° East 485 558 33,000 -60 Descending Cleveland Center
09:53PM 41.6483 -79.2800 80° East 485 558 33,000  Level Cleveland Center
09:54PM 41.6439 -79.0939 92° East 491 565 33,000  Level Cleveland Center
09:55PM 41.6247 -78.9108 98° East 493 567 33,000  Level Cleveland Center
09:56PM 41.6008 -78.7228 100° East 499 574 33,000  Level Cleveland Center
09:57PM 41.5814 -78.5594 99° East 499 574 33,000 -360 Level Cleveland Center
09:58PM 41.5592 -78.3714 99° East 504 580 32,300 -840 Descending Cleveland Center
09:59PM 41.5289 -78.0925 98° East 509 586 31,000 -540 Descending New York Center
10:00PM 41.5044 -77.9125 100° East 497 572 31,000  Level New York Center
10:01PM 41.4800 -77.7297 100° East 497 572 31,000  Level New York Center
10:02PM 41.4531 -77.5444 101° East 497 572 31,000  Level New York Center
10:03PM 41.4192 -77.3361 102° East 502 578 31,000  Level New York Center
10:04PM 41.3939 -77.1483 100° East 508 585 31,000  Level New York Center
10:05PM 41.3642 -76.9631 102° East 513 590 31,000 -780 Level New York Center
10:06PM 41.3375 -76.7919 102° East 501 577 29,500 -2,100 Descending New York Center
10:07PM 41.2958 -76.6225 108° East 485 558 26,800 -2,700 Descending New York Center
10:08PM 41.2536 -76.4672 110° East 465 535 24,100 -2,700 Descending New York Center
10:09PM 41.2125 -76.3203 110° East 460 529 21,400 -2,700 Descending New York Center
10:10PM 41.1719 -76.1597 109° East 460 529 18,800 -1,860 Descending New York Center
10:11PM 41.1253 -75.9961 111° Southeast 441 507 17,800 -1,740 Descending New York Center
10:12PM 41.0897 -75.8531 108° East 421 484 15,400 -2,340 Descending New York Center
10:13PM 41.0533 -75.7292 111° Southeast 407 468 13,200 -1,200 Descending New York Center
10:14PM 41.0156 -75.5889 110° East 402 463 13,000 -120 Descending New York Center
10:15PM 40.9717 -75.4319 110° East 402 463 13,000 -600 Level New York Center
10:16PM 40.9350 -75.3031 111° Southeast 398 458 11,900 -1,920 Descending New York Center
10:17PM 40.9056 -75.2022 111° Southeast 344 396 9,200 -2,400 Descending New York Center
10:18PM 40.8761 -75.0961 110° East 316 364 7,200 -1,140 Descending New York Center
10:19PM 40.8447 -74.9817 110° East 303 349 7,000 -240 Descending New York Center
10:20PM 40.8236 -74.8733 104° East 296 341 6,800 -540 Descending New York Center
10:21PM 40.8583 -74.7767 65° Northeast 281 323 6,000 -420 Descending New York Center
10:22PM 40.8989 -74.6858 59° Northeast 280 322 6,000  Level New York Center
10:23PM 40.9350 -74.6000 61° Northeast 273 314 6,000 -60 Level New York Center
10:24PM 40.9667 -74.5219 62° Northeast 263 303 5,900 -540 Descending New York Center
10:25PM 41.0028 -74.4306 62° Northeast 263 303 5,000 -600 Descending New York Center
10:26PM 40.9969 -74.3478 95° East 242 278 4,700 -780 Descending New York Center
10:27PM 40.9667 -74.2500 112° Southeast 235 270 3,400 -780 Descending New York TRACON
10:28PM 40.9167 -74.1833 135° Southeast 212 244 3,000 -240 Descending New York TRACON
10:29PM 40.8833 -74.1333 131° Southeast 199 229 3,000  Level New York TRACON
10:30PM 40.8500 -74.0833 131° Southeast 181 208 3,000 -300 Level New York TRACON
10:31PM 40.8167 -74.0833 180° South 155 178 2,500 -720 Descending New York TRACON
10:32PM 40.7667 -74.1167 207° Southwest 150 173 1,600 -720 Descending New York TRACON
10:33PM 40.7333 -74.1333 201° Southwest 114 131 1,000 -660 Descending New York TRACON
10:34PM 40.7000 -74.1500 201° Southwest 122 140 300 -720 Descending New York TRACON
10:36PM 40.6833 -74.1667 203° Southwest  Level FlightAware Approximate
10:43PM 40.6925 -74.1687 203° Southwest  Level Estimated
10:44PM 40.6925 -74.1687 203° Southwest  Level Estimated